createdAt,value
2018-08-02T00:01:38.542Z,5.57
2018-08-02T00:04:07.064Z,5.90
2018-08-02T00:06:35.375Z,5.10
2018-08-02T00:09:04.211Z,6.00
2018-08-02T00:11:32.544Z,5.50
2018-08-02T00:14:00.879Z,5.50
2018-08-02T00:16:29.216Z,5.90
2018-08-02T00:18:57.541Z,4.93
2018-08-02T00:21:25.867Z,5.10
2018-08-02T00:23:54.167Z,4.73
2018-08-02T00:26:22.502Z,4.57
2018-08-02T00:28:50.867Z,4.07
2018-08-02T00:31:19.209Z,3.67
2018-08-02T00:33:47.505Z,3.60
2018-08-02T00:36:15.860Z,3.67
2018-08-02T00:38:44.166Z,3.87
2018-08-02T00:41:12.509Z,3.60
2018-08-02T00:43:40.818Z,3.60
2018-08-02T00:46:09.162Z,5.63
2018-08-02T00:48:37.499Z,4.90
2018-08-02T00:51:05.820Z,4.80
2018-08-02T00:53:34.153Z,4.30
2018-08-02T00:56:02.469Z,4.33
2018-08-02T00:58:30.788Z,4.23
2018-08-02T01:00:59.132Z,4.30
2018-08-02T01:03:27.469Z,4.43
2018-08-02T01:05:55.788Z,4.93
2018-08-02T01:08:24.116Z,3.80
2018-08-02T01:10:52.445Z,4.20
2018-08-02T01:13:20.785Z,3.57
2018-08-02T01:15:49.115Z,4.37
2018-08-02T01:18:17.436Z,4.40
2018-08-02T01:20:45.760Z,3.57
2018-08-02T01:23:14.081Z,3.73
2018-08-02T01:25:42.368Z,3.50
2018-08-02T01:28:10.685Z,3.10
2018-08-02T01:30:38.981Z,3.30
2018-08-02T01:33:07.481Z,3.40
2018-08-02T01:35:35.794Z,3.57
2018-08-02T01:38:04.146Z,3.70
2018-08-02T01:40:32.900Z,3.70
2018-08-02T01:43:01.227Z,3.13
2018-08-02T01:45:29.512Z,3.60
2018-08-02T01:47:57.838Z,3.10
2018-08-02T01:50:26.140Z,4.00
2018-08-02T01:52:54.452Z,4.10
2018-08-02T01:55:22.738Z,4.40
2018-08-02T01:57:51.076Z,4.03
2018-08-02T02:00:19.390Z,4.13
2018-08-02T02:02:47.743Z,4.40
2018-08-02T02:05:16.071Z,4.00
2018-08-02T02:07:44.428Z,4.60
2018-08-02T02:10:12.717Z,4.97
2018-08-02T02:12:41.035Z,5.90
2018-08-02T02:15:09.339Z,4.33
2018-08-02T02:17:37.660Z,4.70
2018-08-02T02:20:06.110Z,4.63
2018-08-02T02:22:34.408Z,4.83
2018-08-02T02:25:02.738Z,3.93
2018-08-02T02:27:31.017Z,4.03
2018-08-02T02:29:59.328Z,4.00
2018-08-02T02:32:27.616Z,4.43
2018-08-02T02:34:55.936Z,3.70
2018-08-02T02:37:24.247Z,3.87
2018-08-02T02:39:52.578Z,3.97
2018-08-02T02:42:20.864Z,4.20
2018-08-02T02:44:49.191Z,4.20
2018-08-02T02:47:17.508Z,4.80
2018-08-02T02:49:45.831Z,4.60
2018-08-02T02:52:14.121Z,4.10
2018-08-02T02:54:42.451Z,4.40
2018-08-02T02:57:10.748Z,4.40
2018-08-02T02:59:39.067Z,3.90
2018-08-02T03:02:07.378Z,4.63
2018-08-02T03:04:35.700Z,4.30
2018-08-02T03:07:04.011Z,4.63
2018-08-02T03:09:32.332Z,4.33
2018-08-02T03:12:00.660Z,4.40
2018-08-02T03:14:28.960Z,4.03
2018-08-02T03:16:57.259Z,4.33
2018-08-02T03:19:25.609Z,4.20
2018-08-02T03:21:53.896Z,4.77
2018-08-02T03:24:22.219Z,4.23
2018-08-02T03:26:50.523Z,3.73
2018-08-02T03:29:18.867Z,4.50
2018-08-02T03:31:47.169Z,4.60
2018-08-02T03:34:15.504Z,4.50
2018-08-02T03:36:43.840Z,3.90
2018-08-02T03:39:12.131Z,4.40
2018-08-02T03:41:40.478Z,4.37
2018-08-02T03:44:09.152Z,4.30
2018-08-02T03:46:37.463Z,6.37
2018-08-02T03:49:05.962Z,5.80
2018-08-02T03:51:34.306Z,5.37
2018-08-02T03:54:02.651Z,6.00
2018-08-02T03:56:30.956Z,6.30
2018-08-02T03:58:59.275Z,6.50
2018-08-02T04:01:27.589Z,6.87
2018-08-02T04:03:55.886Z,6.63
2018-08-02T04:06:24.204Z,5.30
2018-08-02T04:08:52.506Z,5.97
2018-08-02T04:11:21.075Z,6.63
2018-08-02T04:13:49.379Z,6.20
2018-08-02T04:16:17.728Z,5.90
2018-08-02T04:18:54.092Z,6.17
2018-08-02T04:21:23.187Z,6.17
2018-08-02T04:23:51.496Z,5.90
2018-08-02T04:26:20.714Z,4.80
2018-08-02T04:28:49.176Z,5.47
2018-08-02T04:31:17.480Z,6.03
2018-08-02T04:33:45.840Z,6.53
2018-08-02T04:36:14.150Z,5.47
2018-08-02T04:38:42.462Z,5.30
2018-08-02T04:41:10.799Z,5.03
2018-08-02T04:43:39.080Z,6.70
2018-08-02T04:46:07.423Z,6.57
2018-08-02T04:48:35.718Z,5.93
2018-08-02T04:51:04.024Z,6.37
2018-08-02T04:53:32.349Z,6.33
2018-08-02T04:56:00.644Z,6.57
2018-08-02T04:58:29.143Z,6.90
2018-08-02T05:00:57.482Z,6.37
2018-08-02T05:03:25.800Z,5.97
2018-08-02T05:05:54.123Z,6.00
2018-08-02T05:08:22.436Z,6.43
2018-08-02T05:10:50.724Z,6.40
2018-08-02T05:13:19.052Z,6.77
2018-08-02T05:15:47.447Z,6.50
2018-08-02T05:18:15.744Z,6.07
2018-08-02T05:20:44.030Z,6.03
2018-08-02T05:23:12.367Z,5.90
2018-08-02T05:25:40.677Z,5.57
2018-08-02T05:28:09.012Z,5.53
2018-08-02T05:30:37.373Z,5.90
2018-08-02T05:33:05.950Z,5.20
2018-08-02T05:35:34.410Z,5.83
2018-08-02T05:38:02.591Z,5.40
2018-08-02T05:40:30.887Z,5.70
2018-08-02T05:42:59.230Z,5.30
2018-08-02T05:45:27.516Z,5.03
2018-08-02T05:47:55.856Z,4.80
2018-08-02T05:50:24.136Z,5.57
2018-08-02T05:52:52.615Z,5.07
2018-08-02T05:55:20.911Z,5.00
2018-08-02T05:57:49.262Z,5.67
2018-08-02T06:00:17.553Z,5.07
2018-08-02T06:02:45.878Z,5.83
2018-08-02T06:05:14.198Z,5.50
2018-08-02T06:07:42.510Z,5.83
2018-08-02T06:10:10.832Z,5.50
2018-08-02T06:12:39.173Z,5.70
2018-08-02T06:15:08.524Z,4.20
2018-08-02T06:17:36.820Z,5.07
2018-08-02T06:20:05.926Z,4.67
2018-08-02T06:22:34.263Z,4.70
2018-08-02T06:25:02.590Z,4.30
2018-08-02T06:27:30.902Z,4.33
2018-08-02T06:29:59.204Z,4.30
2018-08-02T06:32:27.496Z,4.57
2018-08-02T06:34:55.860Z,4.90
2018-08-02T06:37:24.163Z,4.33
2018-08-02T06:39:52.596Z,4.50
2018-08-02T06:42:20.934Z,5.20
2018-08-02T06:44:49.494Z,5.10
2018-08-02T06:47:17.876Z,4.50
2018-08-02T06:49:46.211Z,4.53
2018-08-02T06:52:14.500Z,4.77
2018-08-02T06:54:42.847Z,4.33
2018-08-02T06:57:11.145Z,4.43
2018-08-02T06:59:39.468Z,4.67
2018-08-02T07:02:07.826Z,4.90
2018-08-02T07:04:36.172Z,5.07
2018-08-02T07:07:04.505Z,5.30
2018-08-02T07:09:32.831Z,5.07
2018-08-02T07:12:01.131Z,4.57
2018-08-02T07:14:29.462Z,4.60
2018-08-02T07:16:57.764Z,4.90
2018-08-02T07:19:26.098Z,4.83
2018-08-02T07:21:54.422Z,4.20
2018-08-02T07:24:22.732Z,4.10
2018-08-02T07:26:51.026Z,4.03
2018-08-02T07:29:19.322Z,4.60
2018-08-02T07:31:47.665Z,4.77
2018-08-02T07:34:15.968Z,4.33
2018-08-02T07:36:44.286Z,4.90
2018-08-02T07:39:12.820Z,4.70
2018-08-02T07:41:41.156Z,4.63
2018-08-02T07:44:09.509Z,4.63
2018-08-02T07:46:37.822Z,4.60
2018-08-02T07:49:06.278Z,4.83
2018-08-02T07:51:34.600Z,4.53
2018-08-02T07:54:02.953Z,4.87
2018-08-02T07:56:31.286Z,4.57
2018-08-02T07:58:59.678Z,5.20
2018-08-02T08:01:27.999Z,4.37
2018-08-02T08:03:56.333Z,4.17
2018-08-02T08:06:24.648Z,4.30
2018-08-02T08:08:52.979Z,4.70
2018-08-02T08:11:21.353Z,4.60
2018-08-02T08:13:49.703Z,4.27
2018-08-02T08:16:18.133Z,4.33
2018-08-02T08:18:46.418Z,4.20
2018-08-02T08:21:14.764Z,4.53
2018-08-02T08:23:43.083Z,4.27
2018-08-02T08:26:11.398Z,4.20
2018-08-02T08:28:39.816Z,4.77
2018-08-02T08:31:08.140Z,4.87
2018-08-02T08:33:36.489Z,4.50
2018-08-02T08:36:04.921Z,4.27
2018-08-02T08:38:33.182Z,4.30
2018-08-02T08:41:01.540Z,4.90
2018-08-02T08:43:29.984Z,4.57
2018-08-02T08:45:58.296Z,4.20
2018-08-02T08:48:26.584Z,4.73
2018-08-02T08:50:55.371Z,4.20
2018-08-02T08:53:23.658Z,4.33
2018-08-02T08:55:51.994Z,4.87
2018-08-02T08:58:20.336Z,4.20
2018-08-02T09:00:48.766Z,4.47
2018-08-02T09:03:17.125Z,4.47
2018-08-02T09:05:45.917Z,3.83
2018-08-02T09:08:14.212Z,4.57
2018-08-02T09:10:42.516Z,3.97
2018-08-02T09:13:10.800Z,4.37
2018-08-02T09:15:39.103Z,4.03
2018-08-02T09:18:07.440Z,3.70
2018-08-02T09:20:35.812Z,4.03
2018-08-02T09:23:04.157Z,4.37
2018-08-02T09:25:32.496Z,3.90
2018-08-02T09:28:00.811Z,4.37
2018-08-02T09:30:29.109Z,4.20
2018-08-02T09:32:57.576Z,3.80
2018-08-02T09:35:25.760Z,4.10
2018-08-02T09:37:54.201Z,3.83
2018-08-02T09:40:22.607Z,4.53
2018-08-02T09:42:50.958Z,3.53
2018-08-02T09:45:19.374Z,4.60
2018-08-02T09:47:47.686Z,4.10
2018-08-02T09:50:16.035Z,4.00
2018-08-02T09:52:44.445Z,4.73
2018-08-02T09:55:12.796Z,3.60
2018-08-02T09:57:41.253Z,4.50
2018-08-02T10:00:09.567Z,4.40
2018-08-02T10:02:37.876Z,3.73
2018-08-02T10:05:06.316Z,4.70
2018-08-02T10:07:34.640Z,4.10
2018-08-02T10:10:02.998Z,4.10
2018-08-02T10:12:31.340Z,4.50
2018-08-02T10:14:59.689Z,4.47
2018-08-02T10:17:28.039Z,4.17
2018-08-02T10:19:56.341Z,5.23
2018-08-02T10:22:24.726Z,4.90
2018-08-02T10:24:52.762Z,4.60
2018-08-02T10:27:21.091Z,4.50
2018-08-02T10:29:49.416Z,5.20
2018-08-02T10:32:17.822Z,4.40
2018-08-02T10:34:46.199Z,4.50
2018-08-02T10:37:14.642Z,5.33
2018-08-02T10:39:43.007Z,4.83
2018-08-02T10:42:11.320Z,5.10
2018-08-02T10:44:39.707Z,4.23
2018-08-02T10:47:08.114Z,4.33
2018-08-02T10:49:36.467Z,4.23
2018-08-02T10:52:04.769Z,4.13
2018-08-02T10:54:33.066Z,4.80
2018-08-02T10:57:01.387Z,4.70
2018-08-02T10:59:29.683Z,4.20
2018-08-02T11:01:58.003Z,4.40
2018-08-02T11:04:26.618Z,4.20
2018-08-02T11:06:54.963Z,4.77
2018-08-02T11:09:23.317Z,3.93
2018-08-02T11:11:51.637Z,4.20
2018-08-02T11:14:19.934Z,3.73
2018-08-02T11:16:48.218Z,3.90
2018-08-02T11:19:16.525Z,3.43
2018-08-02T11:21:44.825Z,4.23
2018-08-02T11:24:13.184Z,3.90
2018-08-02T11:26:41.486Z,3.53
2018-08-02T11:29:09.835Z,3.40
2018-08-02T11:31:38.179Z,3.93
2018-08-02T11:34:06.621Z,4.07
2018-08-02T11:36:34.908Z,3.60
2018-08-02T11:39:03.346Z,3.80
2018-08-02T11:41:31.645Z,3.80
2018-08-02T11:44:00.179Z,3.40
2018-08-02T11:46:28.566Z,3.70
2018-08-02T11:48:56.894Z,3.77
2018-08-02T11:51:25.199Z,4.20
2018-08-02T11:53:53.512Z,3.90
2018-08-02T11:56:21.862Z,3.50
2018-08-02T11:58:50.151Z,4.00
2018-08-02T12:01:18.164Z,3.50
2018-08-02T12:03:46.531Z,4.27
2018-08-02T12:06:14.828Z,3.87
2018-08-02T12:08:43.156Z,4.40
2018-08-02T12:11:11.522Z,4.03
2018-08-02T12:13:39.888Z,3.73
2018-08-02T12:16:08.307Z,3.33
2018-08-02T12:18:37.563Z,3.53
2018-08-02T12:21:05.977Z,4.17
2018-08-02T12:23:34.085Z,3.73
2018-08-02T12:26:02.402Z,3.77
2018-08-02T12:28:30.722Z,3.40
2018-08-02T12:30:59.038Z,3.80
2018-08-02T12:33:27.336Z,3.97
2018-08-02T12:35:55.639Z,4.47
2018-08-02T12:38:24.015Z,4.10
2018-08-02T12:40:52.344Z,3.43
2018-08-02T12:43:20.684Z,3.83
2018-08-02T12:45:48.997Z,3.60
2018-08-02T12:48:17.403Z,3.80
2018-08-02T12:50:45.814Z,4.00
2018-08-02T12:53:14.097Z,4.13
2018-08-02T12:55:42.488Z,4.07
2018-08-02T12:58:10.823Z,4.07
2018-08-02T13:00:39.142Z,4.23
2018-08-02T13:03:07.490Z,4.03
2018-08-02T13:05:35.822Z,3.47
2018-08-02T13:08:04.152Z,3.80
2018-08-02T13:10:32.545Z,3.80
2018-08-02T13:13:01.017Z,3.97
2018-08-02T13:15:29.490Z,4.17
2018-08-02T13:17:57.790Z,4.27
2018-08-02T13:20:26.131Z,3.43
2018-08-02T13:22:54.450Z,4.10
2018-08-02T13:25:22.770Z,3.93
2018-08-02T13:27:51.064Z,4.30
2018-08-02T13:30:19.406Z,4.37
2018-08-02T13:32:47.701Z,3.77
2018-08-02T13:35:16.026Z,4.33
2018-08-02T13:37:44.318Z,4.00
2018-08-02T13:40:12.694Z,4.10
2018-08-02T13:42:41.052Z,3.80
2018-08-02T13:45:09.378Z,4.00
2018-08-02T13:47:37.690Z,4.13
2018-08-02T13:50:06.342Z,4.37
2018-08-02T13:52:34.715Z,4.10
2018-08-02T13:55:03.034Z,4.30
2018-08-02T13:57:31.406Z,4.17
2018-08-02T14:00:00.070Z,4.73
2018-08-02T14:02:28.648Z,4.10
2018-08-02T14:04:56.955Z,4.37
2018-08-02T14:07:25.240Z,4.33
2018-08-02T14:09:53.547Z,4.60
2018-08-02T14:12:21.866Z,5.03
2018-08-02T14:14:50.183Z,4.27
2018-08-02T14:17:19.245Z,4.13
2018-08-02T14:19:47.531Z,4.00
2018-08-02T14:22:15.907Z,4.73
2018-08-02T14:24:44.144Z,4.10
2018-08-02T14:27:12.463Z,4.00
2018-08-02T14:29:40.513Z,5.00
2018-08-02T14:32:08.848Z,4.30
2018-08-02T14:34:37.188Z,5.07
2018-08-02T14:37:05.498Z,4.40
2018-08-02T14:39:33.808Z,4.67
2018-08-02T14:42:02.114Z,4.40
2018-08-02T14:44:30.460Z,4.27
2018-08-02T14:46:58.774Z,4.87
2018-08-02T14:49:27.111Z,4.17
2018-08-02T14:51:55.455Z,5.00
2018-08-02T14:54:23.821Z,4.70
2018-08-02T14:56:52.074Z,4.47
2018-08-02T14:59:20.410Z,4.33
2018-08-02T15:01:48.725Z,4.80
2018-08-02T15:04:17.156Z,4.70
2018-08-02T15:06:45.456Z,5.40
2018-08-02T15:09:13.771Z,4.57
2018-08-02T15:11:42.102Z,4.47
2018-08-02T15:14:10.450Z,4.97
2018-08-02T15:16:38.776Z,4.97
2018-08-02T15:19:07.176Z,4.43
2018-08-02T15:21:35.444Z,4.90
2018-08-02T15:24:03.888Z,4.10
2018-08-02T15:26:32.148Z,4.80
2018-08-02T15:29:00.442Z,4.20
2018-08-02T15:31:35.424Z,4.57
2018-08-02T15:34:03.761Z,4.60
2018-08-02T15:36:32.120Z,4.70
2018-08-02T15:39:00.419Z,4.30
2018-08-02T15:41:28.786Z,4.57
2018-08-02T15:43:57.073Z,4.53
2018-08-02T15:46:25.408Z,4.50
2018-08-02T15:48:53.700Z,4.40
2018-08-02T15:51:22.011Z,4.90
2018-08-02T15:53:50.333Z,5.00
2018-08-02T15:56:18.384Z,5.10
2018-08-02T15:58:46.698Z,5.93
2018-08-02T16:01:15.042Z,4.73
2018-08-02T16:03:43.354Z,4.30
2018-08-02T16:06:11.686Z,4.50
2018-08-02T16:08:39.983Z,5.00
2018-08-02T16:11:08.324Z,4.60
2018-08-02T16:13:36.631Z,4.30
2018-08-02T16:16:05.113Z,4.80
2018-08-02T16:18:33.429Z,5.67
2018-08-02T16:21:01.764Z,5.10
2018-08-02T16:23:30.078Z,4.70
2018-08-02T16:25:58.441Z,4.60
2018-08-02T16:28:26.804Z,4.73
2018-08-02T16:30:55.127Z,5.00
2018-08-02T16:33:23.428Z,4.60
2018-08-02T16:35:51.800Z,4.83
2018-08-02T16:38:20.113Z,5.27
2018-08-02T16:40:48.475Z,5.00
2018-08-02T16:43:16.779Z,4.50
2018-08-02T16:45:45.123Z,5.20
2018-08-02T16:48:13.439Z,4.13
2018-08-02T16:50:41.768Z,4.20
2018-08-02T16:53:10.108Z,4.17
2018-08-02T16:55:38.479Z,5.00
2018-08-02T16:58:06.870Z,4.77
2018-08-02T17:00:35.199Z,5.17
2018-08-02T17:03:03.503Z,5.20
2018-08-02T17:05:31.896Z,4.70
2018-08-02T17:08:00.270Z,4.40
2018-08-02T17:10:28.610Z,4.63
2018-08-02T17:12:56.972Z,4.80
2018-08-02T17:15:25.277Z,4.90
2018-08-02T17:17:53.584Z,5.00
2018-08-02T17:20:21.996Z,5.33
2018-08-02T17:22:50.586Z,4.80
2018-08-02T17:25:18.906Z,5.50
2018-08-02T17:27:47.214Z,4.50
2018-08-02T17:30:15.618Z,4.70
2018-08-02T17:32:44.124Z,4.83
2018-08-02T17:35:12.451Z,5.00
2018-08-02T17:37:40.768Z,5.27
2018-08-02T17:40:09.122Z,4.50
2018-08-02T17:42:37.444Z,5.67
2018-08-02T17:45:07.478Z,4.93
2018-08-02T17:47:35.891Z,4.67
2018-08-02T17:50:04.880Z,5.30
2018-08-02T17:52:33.191Z,4.87
2018-08-02T17:55:01.473Z,4.50
2018-08-02T17:57:29.806Z,4.80
2018-08-02T17:59:58.122Z,4.90
2018-08-02T18:02:26.459Z,5.07
2018-08-02T18:04:54.767Z,4.60
2018-08-02T18:07:23.083Z,5.10
2018-08-02T18:09:51.107Z,6.23
2018-08-02T18:12:19.563Z,8.27
2018-08-02T18:14:47.858Z,5.77
2018-08-02T18:17:16.176Z,5.60
2018-08-02T18:19:44.501Z,5.67
2018-08-02T18:22:12.842Z,6.20
2018-08-02T18:24:41.239Z,7.03
2018-08-02T18:27:09.588Z,5.80
2018-08-02T18:29:37.621Z,5.50
2018-08-02T18:32:05.999Z,5.03
2018-08-02T18:34:34.329Z,5.10
2018-08-02T18:37:02.679Z,4.30
2018-08-02T18:39:30.984Z,5.17
2018-08-02T18:41:59.347Z,5.67
2018-08-02T18:44:27.658Z,6.80
2018-08-02T18:46:56.072Z,5.70
2018-08-02T18:49:24.403Z,4.93
2018-08-02T18:51:52.739Z,5.77
2018-08-02T18:54:21.067Z,6.10
2018-08-02T18:56:49.447Z,5.40
2018-08-02T18:59:17.778Z,5.30
2018-08-02T19:01:46.123Z,5.77
2018-08-02T19:04:14.451Z,5.57
2018-08-02T19:06:42.987Z,6.37
2018-08-02T19:09:11.313Z,7.00
2018-08-02T19:11:39.923Z,7.10
2018-08-02T19:14:08.237Z,6.43
2018-08-02T19:16:36.579Z,6.07
2018-08-02T19:19:04.908Z,6.30
2018-08-02T19:21:33.260Z,6.03
2018-08-02T19:24:01.628Z,6.03
2018-08-02T19:26:29.959Z,5.00
2018-08-02T19:28:58.306Z,6.00
2018-08-02T19:31:26.746Z,6.07
2018-08-02T19:33:55.079Z,5.93
2018-08-02T19:36:23.400Z,8.03
2018-08-02T19:38:51.743Z,9.60
2018-08-02T19:41:20.079Z,5.97
2018-08-02T19:43:48.415Z,6.63
2018-08-02T19:46:16.767Z,5.67
2018-08-02T19:48:45.183Z,4.80
2018-08-02T19:51:13.504Z,5.77
2018-08-02T19:53:41.836Z,5.57
2018-08-02T19:56:10.142Z,5.70
2018-08-02T19:58:38.511Z,5.50
2018-08-02T20:01:07.267Z,4.97
2018-08-02T20:03:35.724Z,5.60
2018-08-02T20:06:04.236Z,5.53
2018-08-02T20:08:32.603Z,4.93
2018-08-02T20:11:00.944Z,5.50
2018-08-02T20:13:29.295Z,5.50
2018-08-02T20:15:57.697Z,5.10
2018-08-02T20:18:26.120Z,6.13
2018-08-02T20:20:54.436Z,5.30
2018-08-02T20:23:22.775Z,6.33
2018-08-02T20:25:51.107Z,5.83
2018-08-02T20:28:19.427Z,5.63
2018-08-02T20:30:47.773Z,5.03
2018-08-02T20:33:16.097Z,5.70
2018-08-02T20:35:44.435Z,5.20
2018-08-02T20:38:12.845Z,4.90
2018-08-02T20:40:41.167Z,5.73
2018-08-02T20:43:09.515Z,5.57
2018-08-02T20:45:37.949Z,5.30
2018-08-02T20:48:06.475Z,5.50
2018-08-02T20:50:34.847Z,5.37
2018-08-02T20:53:03.229Z,5.30
2018-08-02T20:55:31.543Z,5.23
2018-08-02T20:58:01.952Z,5.10
2018-08-02T21:00:30.267Z,4.90
2018-08-02T21:02:58.611Z,4.60
2018-08-02T21:05:26.914Z,5.40
2018-08-02T21:07:55.319Z,4.67
2018-08-02T21:10:23.639Z,5.60
2018-08-02T21:12:52.013Z,5.30
2018-08-02T21:15:20.331Z,4.90
2018-08-02T21:17:48.651Z,5.57
2018-08-02T21:20:16.958Z,4.27
2018-08-02T21:22:45.283Z,5.03
2018-08-02T21:25:13.629Z,5.30
2018-08-02T21:27:41.964Z,5.50
2018-08-02T21:30:10.339Z,5.60
2018-08-02T21:32:38.623Z,5.33
2018-08-02T21:35:07.021Z,4.27
2018-08-02T21:37:35.331Z,5.30
2018-08-02T21:40:03.759Z,4.90
2018-08-02T21:42:32.067Z,5.53
2018-08-02T21:45:00.391Z,4.90
2018-08-02T21:47:28.737Z,4.40
2018-08-02T21:49:57.091Z,5.23
2018-08-02T21:52:25.547Z,4.27
2018-08-02T21:54:53.957Z,4.13
2018-08-02T21:57:21.971Z,4.23
2018-08-02T21:59:50.295Z,4.53
2018-08-02T22:02:18.590Z,4.20
2018-08-02T22:04:47.089Z,4.00
2018-08-02T22:07:16.262Z,4.90
2018-08-02T22:09:46.045Z,3.60
2018-08-02T22:12:19.703Z,4.23
2018-08-02T22:14:53.624Z,4.47
2018-08-02T22:17:21.951Z,4.17
2018-08-02T22:19:50.303Z,3.80
2018-08-02T22:22:18.655Z,3.90
2018-08-02T22:24:46.988Z,4.40
2018-08-02T22:27:15.313Z,4.43
2018-08-02T22:29:43.752Z,4.23
2018-08-02T22:32:12.051Z,4.20
2018-08-02T22:34:40.487Z,4.50
2018-08-02T22:37:08.783Z,4.43
2018-08-02T22:39:37.114Z,3.93
2018-08-02T22:42:05.183Z,4.33
2018-08-02T22:44:33.532Z,4.30
2018-08-02T22:47:01.873Z,3.40
2018-08-02T22:49:30.183Z,4.40
2018-08-02T22:51:58.555Z,3.97
2018-08-02T22:54:26.878Z,4.63
2018-08-02T22:56:55.184Z,4.37
2018-08-02T22:59:23.495Z,3.93
2018-08-02T23:01:51.788Z,4.10
2018-08-02T23:04:20.108Z,4.20
2018-08-02T23:06:48.454Z,4.37
2018-08-02T23:09:16.772Z,4.27
2018-08-02T23:11:45.063Z,4.73
2018-08-02T23:14:13.372Z,4.13
2018-08-02T23:16:41.683Z,4.07
2018-08-02T23:19:09.989Z,4.20
2018-08-02T23:21:38.405Z,4.30
2018-08-02T23:24:06.828Z,4.00
2018-08-02T23:26:35.190Z,4.60
2018-08-02T23:29:03.617Z,4.17
2018-08-02T23:31:31.935Z,5.00
2018-08-02T23:34:00.234Z,4.43
2018-08-02T23:36:28.546Z,4.27
2018-08-02T23:38:56.828Z,4.70
2018-08-02T23:41:25.230Z,4.00
2018-08-02T23:43:53.589Z,4.50
2018-08-02T23:46:21.893Z,4.63
2018-08-02T23:48:50.235Z,3.90
2018-08-02T23:51:18.556Z,4.50
2018-08-02T23:53:46.872Z,4.17
2018-08-02T23:56:15.175Z,4.30
2018-08-02T23:58:43.515Z,4.20
